Time;durP1;ratioP1;P1;durP2;ratioP2;P2;SDS_P1;SDS_P2;PMS_P1;PMS_P2;Temp;Humidity;BMP_temperature;BMP_pressure;BME280_temperature;BME280_humidity;BME280_pressure;Samples;Min_cycle;Max_cycle;Signal;HPM_P1;HPM_P2
2022/07/31 00:00:56;;;;;;;1.85;1.10;;;;;;;;;;4854993;29;20122;-58
2022/07/31 00:03:24;;;;;;;2.42;1.42;;;;;;;;;;4863623;29;20053;-59
2022/07/31 00:05:51;;;;;;;3.92;1.60;;;;;;;;;;4858268;29;20052;-59
2022/07/31 00:08:17;;;;;;;3.10;1.50;;;;;;;;;;4868995;29;20061;-59
2022/07/31 00:10:44;;;;;;;4.32;1.63;;;;;;;;;;4858098;29;20056;-59
2022/07/31 00:13:11;;;;;;;3.25;1.55;;;;;;;;;;4846974;29;20057;-59
2022/07/31 00:15:41;;;;;;;3.95;1.65;;;;;;;;;;4856149;29;20126;-59
2022/07/31 00:18:08;;;;;;;2.92;1.50;;;;;;;;;;4857103;29;20049;-59
2022/07/31 00:20:36;;;;;;;5.63;2.53;;;;;;;;;;4858038;29;20049;-59
2022/07/31 00:23:03;;;;;;;3.78;1.65;;;;;;;;;;4854135;29;20065;-58
2022/07/31 00:25:30;;;;;;;5.25;1.73;;;;;;;;;;4858449;29;20064;-59
2022/07/31 00:27:57;;;;;;;2.83;1.60;;;;;;;;;;4854402;29;20053;-58
2022/07/31 00:30:24;;;;;;;2.60;1.40;;;;;;;;;;4854822;29;20081;-59
2022/07/31 00:32:50;;;;;;;3.53;1.33;;;;;;;;;;4855060;29;20069;-58
2022/07/31 00:35:17;;;;;;;2.78;1.50;;;;;;;;;;4853394;29;20073;-58
2022/07/31 00:37:45;;;;;;;3.40;1.60;;;;;;;;;;4858315;29;20057;-59
2022/07/31 00:40:13;;;;;;;2.75;1.42;;;;;;;;;;4858322;29;20104;-59
2022/07/31 00:42:43;;;;;;;3.30;1.63;;;;;;;;;;4863782;29;20080;-59
2022/07/31 00:45:11;;;;;;;1.95;1.33;;;;;;;;;;4845971;29;20053;-59
2022/07/31 00:47:37;;;;;;;6.55;1.60;;;;;;;;;;4861561;29;20069;-59
2022/07/31 00:50:04;;;;;;;3.75;1.50;;;;;;;;;;4857053;29;20076;-59
2022/07/31 00:52:31;;;;;;;5.65;1.70;;;;;;;;;;4860567;29;20057;-59
2022/07/31 00:55:02;;;;;;;2.38;1.30;;;;;;;;;;4864811;29;20057;-59
2022/07/31 00:57:28;;;;;;;3.15;1.70;;;;;;;;;;4878126;29;20061;-58
2022/07/31 00:59:55;;;;;;;3.47;1.90;;;;;;;;;;4853570;29;20074;-59
2022/07/31 01:02:22;;;;;;;5.05;1.58;;;;;;;;;;4862320;29;20105;-58
2022/07/31 01:04:51;;;;;;;3.67;1.48;;;;;;;;;;4880530;29;20080;-57
2022/07/31 01:07:18;;;;;;;4.63;1.55;;;;;;;;;;4878676;29;20109;-58
2022/07/31 01:09:47;;;;;;;4.45;1.55;;;;;;;;;;4863305;29;20079;-57
2022/07/31 01:12:24;;;;;;;2.92;1.42;;;;;;;;;;4863119;29;20064;-57
2022/07/31 01:14:52;;;;;;;3.55;1.50;;;;;;;;;;4863449;29;20061;-57
2022/07/31 01:17:21;;;;;;;3.38;1.30;;;;;;;;;;4863753;29;20064;-58
2022/07/31 01:19:49;;;;;;;2.58;1.45;;;;;;;;;;4863194;29;20061;-57
2022/07/31 01:22:27;;;;;;;3.00;1.60;;;;;;;;;;4863641;29;20067;-58
2022/07/31 01:25:01;;;;;;;2.67;1.48;;;;;;;;;;4864825;29;20056;-58
2022/07/31 01:27:32;;;;;;;2.28;1.40;;;;;;;;;;4863895;29;20069;-58
2022/07/31 01:30:02;;;;;;;2.53;1.52;;;;;;;;;;4878884;29;20068;-57
2022/07/31 01:32:31;;;;;;;3.38;1.55;;;;;;;;;;4863013;29;20061;-58
2022/07/31 01:35:03;;;;;;;5.57;1.70;;;;;;;;;;4863435;29;20056;-59
2022/07/31 01:37:32;;;;;;;4.00;1.52;;;;;;;;;;4863161;29;20064;-59
2022/07/31 01:40:01;;;;;;;3.78;1.40;;;;;;;;;;4863311;29;20119;-59
2022/07/31 01:42:28;;;;;;;4.70;1.35;;;;;;;;;;4878359;29;20061;-58
2022/07/31 01:44:57;;;;;;;2.00;1.30;;;;;;;;;;4863457;29;20069;-58
2022/07/31 01:47:26;;;;;;;2.80;1.55;;;;;;;;;;4863745;29;20064;-59
2022/07/31 01:49:53;;;;;;;2.90;1.50;;;;;;;;;;4862570;29;20081;-60
2022/07/31 01:52:21;;;;;;;2.55;1.52;;;;;;;;;;4860265;29;20446;-59
2022/07/31 01:54:49;;;;;;;2.70;1.33;;;;;;;;;;4851077;29;20069;-58
2022/07/31 01:57:16;;;;;;;3.97;1.60;;;;;;;;;;4861017;29;20156;-58
2022/07/31 01:59:43;;;;;;;4.70;1.50;;;;;;;;;;4861700;29;20113;-58
2022/07/31 02:02:10;;;;;;;3.25;1.50;;;;;;;;;;4851369;29;20095;-60
2022/07/31 02:04:38;;;;;;;2.38;1.38;;;;;;;;;;4860129;29;20059;-58
2022/07/31 02:07:06;;;;;;;2.20;1.27;;;;;;;;;;4860070;29;20127;-58
2022/07/31 02:09:34;;;;;;;3.17;1.25;;;;;;;;;;4860529;29;20132;-59
2022/07/31 02:12:02;;;;;;;4.65;1.58;;;;;;;;;;4860397;29;20068;-59
2022/07/31 02:14:31;;;;;;;3.55;1.75;;;;;;;;;;4861444;29;20059;-59
2022/07/31 02:16:59;;;;;;;3.65;1.58;;;;;;;;;;4860668;29;20065;-59
2022/07/31 02:19:28;;;;;;;4.53;1.70;;;;;;;;;;4859861;29;20072;-59
2022/07/31 02:21:56;;;;;;;2.95;1.60;;;;;;;;;;4859305;29;20057;-59
2022/07/31 02:24:23;;;;;;;3.70;1.88;;;;;;;;;;4859555;29;20503;-58
2022/07/31 02:26:49;;;;;;;4.05;2.20;;;;;;;;;;4858310;29;20168;-59
2022/07/31 02:29:18;;;;;;;8.43;3.42;;;;;;;;;;4859360;29;20056;-59
2022/07/31 02:31:45;;;;;;;;;;;;;;;;;;4860029;29;20049;-59
2022/07/31 02:34:13;;;;;;;3.08;1.65;;;;;;;;;;4875532;29;19958;-59
2022/07/31 02:36:42;;;;;;;4.07;1.52;;;;;;;;;;4858499;29;20060;-59
2022/07/31 02:39:11;;;;;;;4.30;1.42;;;;;;;;;;4859137;29;20136;-59
2022/07/31 02:41:39;;;;;;;2.50;1.40;;;;;;;;;;4859119;29;20511;-60
2022/07/31 02:44:06;;;;;;;2.97;1.45;;;;;;;;;;4859349;29;20063;-59
2022/07/31 02:46:33;;;;;;;3.55;1.60;;;;;;;;;;4859564;29;20053;-59
2022/07/31 02:49:00;;;;;;;3.20;1.70;;;;;;;;;;4859061;29;20049;-58
2022/07/31 02:53:56;;;;;;;3.00;1.73;;;;;;;;;;4861944;29;20057;-58
2022/07/31 02:56:25;;;;;;;6.75;1.70;;;;;;;;;;4856700;29;20052;-58
2022/07/31 02:58:51;;;;;;;2.63;1.48;;;;;;;;;;4851343;29;20140;-57
2022/07/31 03:01:18;;;;;;;3.63;1.63;;;;;;;;;;4879166;23;20049;-58
2022/07/31 03:03:45;;;;;;;4.28;1.80;;;;;;;;;;4833625;29;20085;-58
2022/07/31 03:06:13;;;;;;;3.70;1.67;;;;;;;;;;4848860;29;20061;-58
2022/07/31 03:08:41;;;;;;;;;;;;;;;;;;4859680;29;20057;-58
2022/07/31 03:11:08;;;;;;;3.72;1.40;;;;;;;;;;4844192;29;19984;-58
2022/07/31 03:13:37;;;;;;;4.43;1.75;;;;;;;;;;4861790;29;20073;-59
2022/07/31 03:16:06;;;;;;;3.05;1.50;;;;;;;;;;4867534;29;20061;-59
2022/07/31 03:18:33;;;;;;;3.10;1.48;;;;;;;;;;4851614;29;20057;-59
2022/07/31 03:20:59;;;;;;;2.63;1.30;;;;;;;;;;4858326;29;20060;-58
2022/07/31 03:23:27;;;;;;;2.95;1.60;;;;;;;;;;4848814;29;20077;-59
2022/07/31 03:25:59;;;;;;;3.00;1.50;;;;;;;;;;4839037;29;20060;-59
2022/07/31 03:28:26;;;;;;;3.15;1.80;;;;;;;;;;4861469;29;20062;-61
2022/07/31 03:30:55;;;;;;;3.35;1.83;;;;;;;;;;4859306;29;20049;-61
2022/07/31 03:33:22;;;;;;;4.90;1.83;;;;;;;;;;4848442;29;20077;-61
2022/07/31 03:35:52;;;;;;;3.95;1.52;;;;;;;;;;4842789;29;20108;-61
2022/07/31 03:38:19;;;;;;;3.90;1.42;;;;;;;;;;4852403;29;20153;-61
2022/07/31 03:40:46;;;;;;;8.70;2.90;;;;;;;;;;4848528;29;20053;-61
2022/07/31 03:43:14;;;;;;;5.25;2.05;;;;;;;;;;4841704;29;20067;-61
2022/07/31 03:45:40;;;;;;;3.50;1.83;;;;;;;;;;4869372;29;20053;-61
2022/07/31 03:48:08;;;;;;;4.70;2.40;;;;;;;;;;4842596;29;20053;-61
2022/07/31 03:50:36;;;;;;;2.47;1.58;;;;;;;;;;4848079;29;20113;-61
2022/07/31 03:53:03;;;;;;;6.73;1.50;;;;;;;;;;4840342;29;20061;-60
2022/07/31 03:55:33;;;;;;;3.30;1.67;;;;;;;;;;4848555;29;20050;-60
2022/07/31 03:58:00;;;;;;;2.67;1.45;;;;;;;;;;4845712;29;20090;-61
2022/07/31 04:00:27;;;;;;;3.40;1.52;;;;;;;;;;4841537;29;20053;-61
2022/07/31 04:02:54;;;;;;;3.17;1.55;;;;;;;;;;4843856;29;20061;-60
2022/07/31 04:05:22;;;;;;;4.25;1.80;;;;;;;;;;4827389;29;20066;-60
2022/07/31 04:07:50;;;;;;;4.28;1.90;;;;;;;;;;4835845;29;20053;-61
2022/07/31 04:10:17;;;;;;;4.20;1.80;;;;;;;;;;4827618;29;20054;-60
2022/07/31 04:12:43;;;;;;;7.78;3.25;;;;;;;;;;4834882;29;20079;-61
2022/07/31 04:15:10;;;;;;;6.53;2.88;;;;;;;;;;4827859;29;20058;-60
2022/07/31 04:17:37;;;;;;;4.00;2.00;;;;;;;;;;4817407;29;20054;-61
2022/07/31 04:20:04;;;;;;;2.83;1.52;;;;;;;;;;4831914;29;20064;-60
2022/07/31 04:22:32;;;;;;;6.97;2.65;;;;;;;;;;4844484;29;20118;-61
2022/07/31 04:25:00;;;;;;;3.17;1.77;;;;;;;;;;4835198;29;20054;-61
2022/07/31 04:27:26;;;;;;;3.50;1.83;;;;;;;;;;4830808;29;20057;-61
2022/07/31 04:29:53;;;;;;;4.50;1.60;;;;;;;;;;4834829;29;20057;-61
2022/07/31 04:32:20;;;;;;;4.93;2.05;;;;;;;;;;4829501;29;20050;-61
2022/07/31 04:34:47;;;;;;;3.28;1.60;;;;;;;;;;4835569;29;20141;-60
2022/07/31 04:37:15;;;;;;;4.85;1.92;;;;;;;;;;4830797;29;20057;-61
2022/07/31 04:39:43;;;;;;;3.10;1.77;;;;;;;;;;4835905;29;20058;-61
2022/07/31 04:42:09;;;;;;;4.82;1.90;;;;;;;;;;4828004;29;20050;-61
2022/07/31 04:44:36;;;;;;;2.60;1.75;;;;;;;;;;4835263;29;20117;-61
2022/07/31 04:47:03;;;;;;;3.75;1.60;;;;;;;;;;4830110;29;20049;-61
2022/07/31 04:49:31;;;;;;;2.42;1.45;;;;;;;;;;4835839;29;20053;-61
2022/07/31 04:51:57;;;;;;;8.73;3.05;;;;;;;;;;4815970;29;20136;-61
2022/07/31 04:54:24;;;;;;;6.78;2.88;;;;;;;;;;4835863;29;20046;-61
2022/07/31 04:56:54;;;;;;;9.00;3.28;;;;;;;;;;4830403;29;20052;-61
2022/07/31 04:59:21;;;;;;;8.00;2.95;;;;;;;;;;4835851;29;20065;-60
2022/07/31 05:01:48;;;;;;;6.78;3.42;;;;;;;;;;4836848;29;20114;-61
2022/07/31 05:04:15;;;;;;;9.25;3.38;;;;;;;;;;4871369;29;20056;-61
2022/07/31 05:06:44;;;;;;;5.68;2.35;;;;;;;;;;4875720;29;20068;-61
2022/07/31 05:09:11;;;;;;;9.68;3.92;;;;;;;;;;4869157;29;20060;-61
2022/07/31 05:11:38;;;;;;;3.67;1.90;;;;;;;;;;4873137;29;20048;-61
2022/07/31 05:14:07;;;;;;;12.43;4.22;;;;;;;;;;4855996;29;20092;-61
2022/07/31 05:16:36;;;;;;;10.15;3.75;;;;;;;;;;4856819;29;20088;-61
2022/07/31 05:19:02;;;;;;;;;;;;;;;;;;4863967;29;20071;-60
2022/07/31 05:21:29;;;;;;;4.32;1.70;;;;;;;;;;4875819;29;20253;-61
2022/07/31 05:23:57;;;;;;;5.63;3.00;;;;;;;;;;4860695;29;20057;-62
2022/07/31 05:26:26;;;;;;;7.97;2.95;;;;;;;;;;4851716;29;20056;-62
2022/07/31 05:28:53;;;;;;;8.18;3.80;;;;;;;;;;4854853;29;20059;-61
2022/07/31 05:31:22;;;;;;;8.18;3.05;;;;;;;;;;4859716;29;20056;-61
2022/07/31 05:33:49;;;;;;;4.82;2.22;;;;;;;;;;4854524;29;20060;-61
2022/07/31 05:36:19;;;;;;;3.58;1.80;;;;;;;;;;4860800;29;20061;-61
2022/07/31 05:38:46;;;;;;;13.98;4.03;;;;;;;;;;4855048;29;20060;-60
2022/07/31 05:41:12;;;;;;;4.10;2.05;;;;;;;;;;4860001;29;20061;-60
2022/07/31 05:43:41;;;;;;;15.80;4.95;;;;;;;;;;4855478;29;20061;-60
2022/07/31 05:46:08;;;;;;;9.13;3.97;;;;;;;;;;4859506;29;20061;-60
2022/07/31 05:48:36;;;;;;;5.90;2.75;;;;;;;;;;4859479;29;20057;-60
2022/07/31 05:51:03;;;;;;;7.90;3.35;;;;;;;;;;4859481;29;20061;-59
2022/07/31 05:53:30;;;;;;;11.10;4.97;;;;;;;;;;4853896;29;20057;-61
2022/07/31 05:55:57;;;;;;;8.73;3.85;;;;;;;;;;4851594;29;20056;-61
2022/07/31 05:58:24;;;;;;;11.60;5.10;;;;;;;;;;4858780;29;20072;-60
2022/07/31 06:00:51;;;;;;;3.22;1.70;;;;;;;;;;4886923;29;20049;-60
2022/07/31 06:03:22;;;;;;;5.45;2.33;;;;;;;;;;4889748;29;20060;-60
2022/07/31 06:05:51;;;;;;;9.07;3.53;;;;;;;;;;4868509;29;20061;-60
2022/07/31 06:08:18;;;;;;;;;;;;;;;;;;4875062;29;20070;-60
2022/07/31 06:10:45;;;;;;;9.02;4.70;;;;;;;;;;4859545;29;19928;-60
2022/07/31 06:13:13;;;;;;;10.63;4.20;;;;;;;;;;4855729;29;20064;-60
2022/07/31 06:15:40;;;;;;;11.90;4.43;;;;;;;;;;4857531;29;20061;-61
2022/07/31 06:18:07;;;;;;;8.63;3.55;;;;;;;;;;4874797;29;20061;-60
2022/07/31 06:20:34;;;;;;;9.02;3.75;;;;;;;;;;4868079;29;20109;-60
2022/07/31 06:23:02;;;;;;;9.85;4.47;;;;;;;;;;4874740;29;20105;-61
2022/07/31 06:25:31;;;;;;;5.28;2.65;;;;;;;;;;4862255;29;20067;-60
2022/07/31 06:27:58;;;;;;;7.97;3.67;;;;;;;;;;4858266;29;20065;-61
2022/07/31 06:30:27;;;;;;;10.60;4.90;;;;;;;;;;4882376;29;20058;-60
2022/07/31 06:32:54;;;;;;;9.85;4.53;;;;;;;;;;4874105;29;20148;-61
2022/07/31 06:35:21;;;;;;;16.98;6.10;;;;;;;;;;4874742;29;20053;-59
2022/07/31 06:37:47;;;;;;;5.57;2.05;;;;;;;;;;4851248;29;20064;-60
2022/07/31 06:40:15;;;;;;;6.20;2.58;;;;;;;;;;4855703;29;20050;-60
2022/07/31 06:42:43;;;;;;;7.45;3.28;;;;;;;;;;4850802;29;20149;-60
2022/07/31 06:45:11;;;;;;;5.88;2.35;;;;;;;;;;4856575;29;20076;-61
2022/07/31 06:47:40;;;;;;;13.15;5.63;;;;;;;;;;4864286;29;20061;-60
2022/07/31 06:50:07;;;;;;;12.63;5.70;;;;;;;;;;4869895;29;20080;-61
2022/07/31 06:52:34;;;;;;;9.15;3.80;;;;;;;;;;4851238;29;20041;-61
2022/07/31 06:55:01;;;;;;;5.72;2.40;;;;;;;;;;4856648;29;20149;-62
2022/07/31 06:57:29;;;;;;;6.43;3.80;;;;;;;;;;4859181;29;20049;-61
2022/07/31 06:59:55;;;;;;;9.75;5.20;;;;;;;;;;4872691;29;20060;-60
2022/07/31 07:02:22;;;;;;;7.85;2.92;;;;;;;;;;4859747;29;20083;-61
2022/07/31 07:04:53;;;;;;;7.35;2.80;;;;;;;;;;4853781;29;20141;-60
2022/07/31 07:07:19;;;;;;;16.60;6.00;;;;;;;;;;4836984;29;20042;-60
2022/07/31 07:09:46;;;;;;;8.55;4.07;;;;;;;;;;4848983;29;20053;-60
2022/07/31 07:12:12;;;;;;;10.25;4.82;;;;;;;;;;4831407;29;20054;-61
2022/07/31 07:14:41;;;;;;;11.68;5.43;;;;;;;;;;4835926;29;20042;-61
2022/07/31 07:17:07;;;;;;;9.73;5.10;;;;;;;;;;4846957;29;20098;-61
2022/07/31 07:19:41;;;;;;;11.30;4.70;;;;;;;;;;4833694;29;20046;-60
2022/07/31 07:22:08;;;;;;;11.63;5.05;;;;;;;;;;4834691;29;20064;-61
2022/07/31 07:24:34;;;;;;;12.73;6.68;;;;;;;;;;4829934;29;20091;-61
2022/07/31 07:27:02;;;;;;;13.38;6.47;;;;;;;;;;4834752;29;20053;-61
2022/07/31 07:29:29;;;;;;;13.73;5.47;;;;;;;;;;4831525;29;20065;-60
2022/07/31 07:31:58;;;;;;;5.78;3.03;;;;;;;;;;4835700;29;20053;-61
2022/07/31 07:34:25;;;;;;;15.77;6.57;;;;;;;;;;4831708;29;20081;-60
2022/07/31 07:36:54;;;;;;;6.18;2.90;;;;;;;;;;4827490;29;20062;-61
2022/07/31 07:39:21;;;;;;;13.10;6.55;;;;;;;;;;4829853;29;20145;-60
2022/07/31 07:41:47;;;;;;;10.45;4.43;;;;;;;;;;4834918;29;20080;-59
2022/07/31 07:44:14;;;;;;;6.95;3.80;;;;;;;;;;4831977;29;20053;-59
2022/07/31 07:46:44;;;;;;;4.32;2.45;;;;;;;;;;4849912;29;20066;-60
2022/07/31 07:49:12;;;;;;;13.13;5.97;;;;;;;;;;4828184;29;20103;-59
2022/07/31 07:51:38;;;;;;;21.05;7.32;;;;;;;;;;4833982;29;20050;-60
2022/07/31 07:54:05;;;;;;;11.63;5.63;;;;;;;;;;4829793;29;20061;-61
2022/07/31 07:56:33;;;;;;;11.82;6.40;;;;;;;;;;4834775;29;20090;-60
2022/07/31 07:58:59;;;;;;;14.07;7.20;;;;;;;;;;4828945;29;20121;-60
2022/07/31 08:01:27;;;;;;;10.20;5.60;;;;;;;;;;4833596;29;20062;-61
2022/07/31 08:03:53;;;;;;;10.02;5.47;;;;;;;;;;4859702;29;20131;-61
2022/07/31 08:06:22;;;;;;;13.10;6.75;;;;;;;;;;4855184;29;20079;-61
2022/07/31 08:08:49;;;;;;;13.80;6.07;;;;;;;;;;4868032;29;20122;-61
2022/07/31 08:11:16;;;;;;;12.73;6.40;;;;;;;;;;4842298;29;20058;-60
2022/07/31 08:13:42;;;;;;;11.80;5.22;;;;;;;;;;4846045;29;20081;-60
2022/07/31 08:16:09;;;;;;;15.68;6.13;;;;;;;;;;4840561;29;20058;-61
2022/07/31 08:18:36;;;;;;;13.15;5.88;;;;;;;;;;4848386;29;20058;-62
2022/07/31 08:21:02;;;;;;;14.15;6.80;;;;;;;;;;4843594;29;20062;-61
2022/07/31 08:23:32;;;;;;;14.73;6.32;;;;;;;;;;4851301;29;20064;-61
2022/07/31 08:25:58;;;;;;;11.48;5.15;;;;;;;;;;4846957;29;20064;-60
2022/07/31 08:28:25;;;;;;;11.32;5.18;;;;;;;;;;4843772;29;20121;-60
2022/07/31 08:30:52;;;;;;;17.75;8.25;;;;;;;;;;4847293;29;20057;-60
2022/07/31 08:33:19;;;;;;;11.80;4.78;;;;;;;;;;4841017;29;20055;-60
2022/07/31 08:35:46;;;;;;;10.57;6.30;;;;;;;;;;4849720;29;20057;-62
2022/07/31 08:38:14;;;;;;;16.35;6.38;;;;;;;;;;4840259;29;20057;-61
2022/07/31 08:40:42;;;;;;;13.13;6.60;;;;;;;;;;4842238;29;20068;-61
2022/07/31 08:43:09;;;;;;;14.60;6.60;;;;;;;;;;4840003;29;20061;-61
2022/07/31 08:45:39;;;;;;;15.32;6.90;;;;;;;;;;4842787;29;20060;-60
2022/07/31 08:48:07;;;;;;;17.88;6.45;;;;;;;;;;4852411;29;20068;-60
2022/07/31 08:50:34;;;;;;;17.10;7.47;;;;;;;;;;4839569;29;20056;-60
2022/07/31 08:53:02;;;;;;;12.63;5.40;;;;;;;;;;4846603;29;20062;-60
2022/07/31 08:55:29;;;;;;;12.48;5.07;;;;;;;;;;4845551;29;20152;-60
2022/07/31 08:57:57;;;;;;;10.73;4.78;;;;;;;;;;4865915;29;20064;-61
2022/07/31 09:00:27;;;;;;;9.02;3.88;;;;;;;;;;4841934;29;20057;-59
2022/07/31 09:02:54;;;;;;;12.00;5.55;;;;;;;;;;4851569;29;20113;-62
2022/07/31 09:05:23;;;;;;;18.38;6.80;;;;;;;;;;4836423;29;20066;-60
2022/07/31 09:07:49;;;;;;;;;;;;;;;;;;4829763;29;20090;-60
2022/07/31 09:10:24;;;;;;;15.18;6.93;;;;;;;;;;4829686;29;19929;-60
2022/07/31 09:12:50;;;;;;;13.93;6.53;;;;;;;;;;4821735;29;20058;-61
2022/07/31 09:15:34;;;;;;;15.45;7.32;;;;;;;;;;4840212;29;20054;-61
2022/07/31 09:18:01;;;;;;;9.50;4.63;;;;;;;;;;4817051;29;21597;-59
2022/07/31 09:20:31;;;;;;;11.27;5.05;;;;;;;;;;4821012;29;20070;-61
2022/07/31 09:23:10;;;;;;;10.48;5.05;;;;;;;;;;4815702;29;20148;-61
2022/07/31 09:25:37;;;;;;;9.30;4.65;;;;;;;;;;4848349;29;20149;-59
2022/07/31 09:28:06;;;;;;;12.13;4.75;;;;;;;;;;4827350;29;20113;-59
2022/07/31 09:30:35;;;;;;;18.05;7.22;;;;;;;;;;4838163;29;20132;-59
2022/07/31 09:33:15;;;;;;;13.73;6.07;;;;;;;;;;4839694;29;20049;-59
2022/07/31 09:35:48;;;;;;;18.35;7.85;;;;;;;;;;4817155;29;20137;-60
2022/07/31 09:38:15;;;;;;;9.88;4.40;;;;;;;;;;4824232;29;20085;-61
2022/07/31 09:40:43;;;;;;;17.52;7.68;;;;;;;;;;4830915;29;20065;-59
2022/07/31 09:43:14;;;;;;;15.15;7.70;;;;;;;;;;4854746;29;20065;-61
2022/07/31 09:45:43;;;;;;;11.50;5.75;;;;;;;;;;4825600;29;20054;-61
2022/07/31 09:48:11;;;;;;;20.23;8.50;;;;;;;;;;4821276;29;20050;-62
2022/07/31 09:50:38;;;;;;;8.07;4.47;;;;;;;;;;4820918;29;20174;-59
2022/07/31 09:53:07;;;;;;;10.45;4.97;;;;;;;;;;4821683;29;20137;-61
2022/07/31 09:55:34;;;;;;;12.93;5.28;;;;;;;;;;4821326;29;20054;-61
2022/07/31 09:58:01;;;;;;;11.63;4.38;;;;;;;;;;4830994;29;20130;-60
2022/07/31 10:00:28;;;;;;;15.98;5.55;;;;;;;;;;4854764;29;20062;-60
2022/07/31 10:02:56;;;;;;;18.13;8.20;;;;;;;;;;4834959;29;20058;-60
2022/07/31 10:05:23;;;;;;;;;;;;;;;;;;4856950;29;20072;-60
2022/07/31 10:07:50;;;;;;;13.63;6.28;;;;;;;;;;4847061;29;19939;-61
2022/07/31 10:10:17;;;;;;;17.85;8.23;;;;;;;;;;4839109;29;20072;-61
2022/07/31 10:12:50;;;;;;;9.95;4.88;;;;;;;;;;4851389;29;20053;-61
2022/07/31 10:15:17;;;;;;;17.58;8.18;;;;;;;;;;4837724;29;20054;-62
2022/07/31 10:17:45;;;;;;;20.15;8.40;;;;;;;;;;4839056;29;20136;-62
2022/07/31 10:20:17;;;;;;;19.17;7.32;;;;;;;;;;4862762;29;20064;-59
2022/07/31 10:22:49;;;;;;;13.82;7.28;;;;;;;;;;4872894;29;20145;-60
2022/07/31 10:25:19;;;;;;;13.95;6.55;;;;;;;;;;4849145;29;20069;-60
2022/07/31 10:27:46;;;;;;;15.25;6.40;;;;;;;;;;4837979;29;20142;-58
2022/07/31 10:30:14;;;;;;;15.80;7.63;;;;;;;;;;4846636;29;20053;-58
2022/07/31 10:32:40;;;;;;;15.82;7.38;;;;;;;;;;4855880;29;20049;-60
2022/07/31 10:35:08;;;;;;;16.88;9.20;;;;;;;;;;4860509;29;20053;-59
2022/07/31 10:37:38;;;;;;;22.77;10.45;;;;;;;;;;4859024;29;20045;-58
2022/07/31 10:40:08;;;;;;;17.55;9.85;;;;;;;;;;4851828;29;20052;-60
2022/07/31 10:42:41;;;;;;;14.10;6.82;;;;;;;;;;4857234;29;20055;-60
2022/07/31 10:45:09;;;;;;;16.13;9.02;;;;;;;;;;4851032;29;20053;-59
2022/07/31 10:47:37;;;;;;;10.88;5.55;;;;;;;;;;4855366;29;20065;-59
2022/07/31 10:50:04;;;;;;;15.43;8.70;;;;;;;;;;4851128;29;20061;-59
2022/07/31 10:52:32;;;;;;;19.92;10.27;;;;;;;;;;4857072;29;20081;-59
2022/07/31 10:55:00;;;;;;;12.20;7.57;;;;;;;;;;4867208;29;20065;-58
2022/07/31 10:57:32;;;;;;;19.67;9.93;;;;;;;;;;4847711;29;20056;-58
2022/07/31 11:00:08;;;;;;;16.55;9.07;;;;;;;;;;4850433;29;20068;-59
2022/07/31 11:02:36;;;;;;;17.50;8.77;;;;;;;;;;4857773;29;20069;-59
2022/07/31 11:05:08;;;;;;;13.40;7.15;;;;;;;;;;4851920;29;20057;-59
2022/07/31 11:07:36;;;;;;;12.93;7.13;;;;;;;;;;4856177;29;20061;-58
2022/07/31 11:10:15;;;;;;;15.73;8.48;;;;;;;;;;4856042;29;20076;-59
2022/07/31 11:12:41;;;;;;;16.88;8.35;;;;;;;;;;4855382;29;20076;-58
2022/07/31 11:15:18;;;;;;;18.70;9.25;;;;;;;;;;4857121;29;20057;-58
2022/07/31 11:17:45;;;;;;;19.00;11.27;;;;;;;;;;4832800;29;20118;-58
2022/07/31 11:20:18;;;;;;;18.67;10.98;;;;;;;;;;4871551;29;20065;-59
2022/07/31 11:22:52;;;;;;;17.60;10.30;;;;;;;;;;4849720;29;20136;-58
2022/07/31 11:25:28;;;;;;;16.73;9.50;;;;;;;;;;4857506;29;20112;-58
2022/07/31 11:27:54;;;;;;;19.55;11.18;;;;;;;;;;4850856;29;20061;-59
2022/07/31 11:30:22;;;;;;;20.63;11.23;;;;;;;;;;4834081;29;20080;-59
2022/07/31 11:32:52;;;;;;;19.43;11.73;;;;;;;;;;4828677;29;20102;-59
2022/07/31 11:35:26;;;;;;;23.95;13.50;;;;;;;;;;4857806;29;20310;-60
2022/07/31 11:37:53;;;;;;;25.88;14.00;;;;;;;;;;4849770;29;20126;-58
2022/07/31 11:40:20;;;;;;;18.67;11.63;;;;;;;;;;4854601;29;20144;-59
2022/07/31 11:42:48;;;;;;;11.40;6.60;;;;;;;;;;4850130;29;20102;-59
2022/07/31 11:45:17;;;;;;;16.85;10.07;;;;;;;;;;4856818;29;20129;-59
2022/07/31 11:47:45;;;;;;;17.52;11.30;;;;;;;;;;4851656;29;20046;-61
2022/07/31 11:50:12;;;;;;;19.83;12.10;;;;;;;;;;4850659;29;20054;-58
2022/07/31 11:52:48;;;;;;;10.65;6.45;;;;;;;;;;4831668;29;20098;-58
2022/07/31 11:55:15;;;;;;;16.20;8.18;;;;;;;;;;4836753;29;20057;-59
2022/07/31 11:57:42;;;;;;;12.07;7.35;;;;;;;;;;4836110;29;20097;-57
2022/07/31 12:00:12;;;;;;;14.75;8.77;;;;;;;;;;4855880;29;20207;-58
2022/07/31 12:02:44;;;;;;;17.67;9.77;;;;;;;;;;4846654;29;20054;-59
2022/07/31 12:05:12;;;;;;;16.38;10.40;;;;;;;;;;4838535;29;20086;-59
2022/07/31 12:07:39;;;;;;;15.45;8.07;;;;;;;;;;4827371;29;20050;-60
2022/07/31 12:10:07;;;;;;;13.07;8.60;;;;;;;;;;4834478;29;20064;-59
2022/07/31 12:12:34;;;;;;;12.65;7.28;;;;;;;;;;4834789;29;20065;-59
2022/07/31 12:15:12;;;;;;;18.17;10.02;;;;;;;;;;4831027;29;20077;-60
2022/07/31 12:17:39;;;;;;;;;;;;;;;;;;4852370;29;20054;-59
2022/07/31 12:20:08;;;;;;;14.70;8.32;;;;;;;;;;4838617;29;19928;-59
2022/07/31 12:22:35;;;;;;;16.13;7.60;;;;;;;;;;4839685;29;20054;-59
2022/07/31 12:25:01;;;;;;;11.90;6.35;;;;;;;;;;4820999;29;20058;-60
2022/07/31 12:27:28;;;;;;;9.35;5.78;;;;;;;;;;4828159;29;20141;-59
2022/07/31 12:29:55;;;;;;;10.05;5.55;;;;;;;;;;4820717;29;20125;-60
2022/07/31 12:32:26;;;;;;;11.02;5.60;;;;;;;;;;4830743;29;20054;-59
2022/07/31 12:35:04;;;;;;;11.50;5.07;;;;;;;;;;4829042;29;20155;-59
2022/07/31 12:37:41;;;;;;;9.73;4.70;;;;;;;;;;4835962;29;20062;-59
2022/07/31 12:40:09;;;;;;;;;;;;;;;;;;4830648;29;20058;-60
2022/07/31 12:42:38;;;;;;;7.57;4.50;;;;;;;;;;4827501;29;19929;-57
2022/07/31 12:45:11;;;;;;;9.88;4.53;;;;;;;;;;4820592;29;20107;-60
2022/07/31 12:47:38;;;;;;;9.93;4.40;;;;;;;;;;4849726;29;20050;-59
2022/07/31 12:50:05;;;;;;;10.27;4.18;;;;;;;;;;4826243;29;20038;-59
2022/07/31 12:52:34;;;;;;;9.05;4.20;;;;;;;;;;4846588;29;20057;-60
2022/07/31 12:55:02;;;;;;;7.85;3.90;;;;;;;;;;4821741;29;20053;-59
2022/07/31 12:57:29;;;;;;;14.43;4.50;;;;;;;;;;4825234;29;20145;-58
2022/07/31 12:59:58;;;;;;;6.93;3.78;;;;;;;;;;4822765;29;20070;-59
2022/07/31 13:02:24;;;;;;;12.02;5.18;;;;;;;;;;4826910;29;20074;-58
2022/07/31 13:04:53;;;;;;;9.65;5.22;;;;;;;;;;4825800;29;20050;-59
2022/07/31 13:07:20;;;;;;;10.23;4.43;;;;;;;;;;4830871;29;20046;-58
2022/07/31 13:09:48;;;;;;;9.07;4.80;;;;;;;;;;4831627;29;20045;-58
2022/07/31 13:12:18;;;;;;;10.07;4.18;;;;;;;;;;4823972;29;20095;-59
2022/07/31 13:14:44;;;;;;;9.68;4.55;;;;;;;;;;4831268;29;20074;-58
2022/07/31 13:17:11;;;;;;;10.00;4.82;;;;;;;;;;4824068;29;20046;-58
2022/07/31 13:19:38;;;;;;;11.88;5.13;;;;;;;;;;4829810;29;20074;-57
2022/07/31 13:22:05;;;;;;;7.97;4.07;;;;;;;;;;4831273;29;20050;-60
2022/07/31 13:24:32;;;;;;;10.60;5.10;;;;;;;;;;4827710;29;20073;-58
2022/07/31 13:27:03;;;;;;;10.45;4.72;;;;;;;;;;4823656;29;20114;-58
2022/07/31 13:29:30;;;;;;;10.00;5.07;;;;;;;;;;4828454;29;20062;-58
2022/07/31 13:31:56;;;;;;;11.13;4.65;;;;;;;;;;4826719;29;20129;-58
2022/07/31 13:34:23;;;;;;;14.30;4.25;;;;;;;;;;4829742;29;20077;-59
2022/07/31 13:36:56;;;;;;;10.95;4.03;;;;;;;;;;4822650;29;20054;-57
2022/07/31 13:39:22;;;;;;;10.45;4.32;;;;;;;;;;4833103;29;20058;-58
2022/07/31 13:41:49;;;;;;;11.23;4.55;;;;;;;;;;4822822;29;20054;-57
2022/07/31 13:44:17;;;;;;;8.93;4.72;;;;;;;;;;4827048;29;20059;-59
2022/07/31 13:46:45;;;;;;;14.70;3.97;;;;;;;;;;4826592;29;20085;-59
2022/07/31 13:49:12;;;;;;;7.88;3.47;;;;;;;;;;4837394;29;20065;-58
2022/07/31 13:51:38;;;;;;;6.13;3.28;;;;;;;;;;4826751;29;20058;-59
2022/07/31 13:54:05;;;;;;;11.90;3.35;;;;;;;;;;4853607;29;20062;-58
2022/07/31 13:56:32;;;;;;;8.95;3.25;;;;;;;;;;4831138;29;20062;-58
2022/07/31 13:59:00;;;;;;;9.15;3.55;;;;;;;;;;4830055;29;20065;-58
2022/07/31 14:01:28;;;;;;;6.00;2.83;;;;;;;;;;4836640;29;20068;-58
2022/07/31 14:03:56;;;;;;;9.13;3.17;;;;;;;;;;4834631;29;20133;-58
2022/07/31 14:06:25;;;;;;;6.00;2.70;;;;;;;;;;4830881;29;20057;-59
2022/07/31 14:08:55;;;;;;;7.07;2.53;;;;;;;;;;4827313;29;20050;-59
2022/07/31 14:11:23;;;;;;;9.80;3.30;;;;;;;;;;4832606;29;20061;-58
2022/07/31 14:13:50;;;;;;;8.15;2.80;;;;;;;;;;4846512;29;20058;-58
2022/07/31 14:16:17;;;;;;;6.03;2.85;;;;;;;;;;4833245;29;20062;-60
2022/07/31 14:18:45;;;;;;;7.57;2.77;;;;;;;;;;4829271;29;20064;-59
2022/07/31 14:21:12;;;;;;;8.38;2.72;;;;;;;;;;4831774;29;20299;-59
2022/07/31 14:23:39;;;;;;;8.25;4.13;;;;;;;;;;4820996;29;20061;-59
2022/07/31 14:26:06;;;;;;;9.25;3.20;;;;;;;;;;4828421;29;20064;-59
2022/07/31 14:28:34;;;;;;;8.32;3.33;;;;;;;;;;4824596;29;20102;-59
2022/07/31 14:31:01;;;;;;;7.68;3.35;;;;;;;;;;4831335;29;20140;-59
2022/07/31 14:33:27;;;;;;;6.07;2.35;;;;;;;;;;4824957;29;20078;-58
2022/07/31 14:35:57;;;;;;;6.40;2.75;;;;;;;;;;4828585;29;20062;-58
2022/07/31 14:38:24;;;;;;;7.32;3.00;;;;;;;;;;4823250;29;20081;-58
2022/07/31 14:40:51;;;;;;;7.88;2.90;;;;;;;;;;4828120;29;20057;-59
2022/07/31 14:43:17;;;;;;;5.47;2.95;;;;;;;;;;4828638;29;20069;-57
2022/07/31 14:45:44;;;;;;;11.63;2.95;;;;;;;;;;4821443;29;20089;-58